sensor_id;sensor_type;location;lat;lon;timestamp;P1;durP1;ratioP1;P2;durP2;ratioP2
28028;SDS011;15345;59.364;18.016;2023-04-24T00:00:54;3.15;;;2.85;;
28028;SDS011;15345;59.364;18.016;2023-04-24T00:02:15;3.40;;;3.10;;
28028;SDS011;15345;59.364;18.016;2023-04-24T00:03:34;2.88;;;2.67;;
28028;SDS011;15345;59.364;18.016;2023-04-24T00:04:53;3.65;;;3.08;;
28028;SDS011;15345;59.364;18.016;2023-04-24T00:06:12;3.70;;;2.80;;
28028;SDS011;15345;59.364;18.016;2023-04-24T00:07:31;5.18;;;3.28;;
28028;SDS011;15345;59.364;18.016;2023-04-24T00:08:50;4.13;;;3.10;;
28028;SDS011;15345;59.364;18.016;2023-04-24T00:10:09;3.90;;;3.30;;
28028;SDS011;15345;59.364;18.016;2023-04-24T00:11:28;3.35;;;3.05;;
28028;SDS011;15345;59.364;18.016;2023-04-24T00:12:47;3.63;;;3.30;;
28028;SDS011;15345;59.364;18.016;2023-04-24T00:14:06;3.75;;;3.38;;
28028;SDS011;15345;59.364;18.016;2023-04-24T00:15:25;4.53;;;3.80;;
28028;SDS011;15345;59.364;18.016;2023-04-24T00:16:44;4.53;;;3.63;;
28028;SDS011;15345;59.364;18.016;2023-04-24T00:18:03;4.13;;;3.03;;
28028;SDS011;15345;59.364;18.016;2023-04-24T00:19:22;5.40;;;3.47;;
28028;SDS011;15345;59.364;18.016;2023-04-24T00:20:41;3.55;;;3.25;;
28028;SDS011;15345;59.364;18.016;2023-04-24T00:22:02;4.65;;;3.72;;
28028;SDS011;15345;59.364;18.016;2023-04-24T00:23:21;5.28;;;3.40;;
28028;SDS011;15345;59.364;18.016;2023-04-24T00:24:40;3.85;;;3.55;;
28028;SDS011;15345;59.364;18.016;2023-04-24T00:25:59;3.85;;;3.50;;
28028;SDS011;15345;59.364;18.016;2023-04-24T00:27:18;4.90;;;3.90;;
28028;SDS011;15345;59.364;18.016;2023-04-24T00:28:37;4.05;;;3.70;;
28028;SDS011;15345;59.364;18.016;2023-04-24T00:29:56;4.32;;;3.40;;
28028;SDS011;15345;59.364;18.016;2023-04-24T00:31:15;6.35;;;3.78;;
28028;SDS011;15345;59.364;18.016;2023-04-24T00:32:34;7.75;;;3.88;;
28028;SDS011;15345;59.364;18.016;2023-04-24T00:33:53;5.43;;;3.58;;
28028;SDS011;15345;59.364;18.016;2023-04-24T00:35:12;5.50;;;3.60;;
28028;SDS011;15345;59.364;18.016;2023-04-24T00:36:31;7.25;;;4.03;;
28028;SDS011;15345;59.364;18.016;2023-04-24T00:37:50;9.43;;;3.72;;
28028;SDS011;15345;59.364;18.016;2023-04-24T00:39:09;7.20;;;3.60;;
28028;SDS011;15345;59.364;18.016;2023-04-24T00:40:28;11.73;;;3.72;;
28028;SDS011;15345;59.364;18.016;2023-04-24T00:41:47;12.77;;;4.13;;
28028;SDS011;15345;59.364;18.016;2023-04-24T00:43:07;3.53;;;3.08;;
28028;SDS011;15345;59.364;18.016;2023-04-24T00:44:25;4.80;;;3.35;;
28028;SDS011;15345;59.364;18.016;2023-04-24T00:45:44;3.53;;;3.22;;
28028;SDS011;15345;59.364;18.016;2023-04-24T00:47:03;9.02;;;3.90;;
28028;SDS011;15345;59.364;18.016;2023-04-24T00:48:22;6.63;;;4.03;;
28028;SDS011;15345;59.364;18.016;2023-04-24T00:49:42;6.40;;;4.00;;
28028;SDS011;15345;59.364;18.016;2023-04-24T00:51:01;6.65;;;3.75;;
28028;SDS011;15345;59.364;18.016;2023-04-24T00:52:21;9.10;;;4.32;;
28028;SDS011;15345;59.364;18.016;2023-04-24T00:53:42;4.57;;;3.72;;
28028;SDS011;15345;59.364;18.016;2023-04-24T00:55:01;5.05;;;4.07;;
28028;SDS011;15345;59.364;18.016;2023-04-24T00:56:20;6.05;;;3.83;;
28028;SDS011;15345;59.364;18.016;2023-04-24T00:57:39;5.53;;;3.75;;
28028;SDS011;15345;59.364;18.016;2023-04-24T00:58:58;3.50;;;3.20;;
28028;SDS011;15345;59.364;18.016;2023-04-24T01:00:17;5.47;;;3.47;;
28028;SDS011;15345;59.364;18.016;2023-04-24T01:01:37;6.30;;;3.83;;
28028;SDS011;15345;59.364;18.016;2023-04-24T01:04:19;4.10;;;3.35;;
28028;SDS011;15345;59.364;18.016;2023-04-24T01:05:39;5.13;;;3.25;;
28028;SDS011;15345;59.364;18.016;2023-04-24T01:06:59;6.00;;;3.90;;
28028;SDS011;15345;59.364;18.016;2023-04-24T01:08:18;5.22;;;3.80;;
28028;SDS011;15345;59.364;18.016;2023-04-24T01:09:39;6.78;;;3.60;;
28028;SDS011;15345;59.364;18.016;2023-04-24T01:10:59;4.30;;;3.38;;
28028;SDS011;15345;59.364;18.016;2023-04-24T01:12:19;4.80;;;3.80;;
28028;SDS011;15345;59.364;18.016;2023-04-24T01:13:38;3.72;;;3.25;;
28028;SDS011;15345;59.364;18.016;2023-04-24T01:14:58;3.47;;;3.08;;
28028;SDS011;15345;59.364;18.016;2023-04-24T01:16:18;4.47;;;3.30;;
28028;SDS011;15345;59.364;18.016;2023-04-24T01:17:39;3.95;;;3.53;;
28028;SDS011;15345;59.364;18.016;2023-04-24T01:18:58;3.83;;;3.45;;
28028;SDS011;15345;59.364;18.016;2023-04-24T01:20:17;4.82;;;4.03;;
28028;SDS011;15345;59.364;18.016;2023-04-24T01:21:37;5.88;;;3.10;;
28028;SDS011;15345;59.364;18.016;2023-04-24T01:22:56;6.05;;;3.38;;
28028;SDS011;15345;59.364;18.016;2023-04-24T01:24:16;5.32;;;3.70;;
28028;SDS011;15345;59.364;18.016;2023-04-24T01:25:35;5.10;;;3.22;;
28028;SDS011;15345;59.364;18.016;2023-04-24T01:26:54;4.82;;;3.53;;
28028;SDS011;15345;59.364;18.016;2023-04-24T01:28:13;5.03;;;3.42;;
28028;SDS011;15345;59.364;18.016;2023-04-24T01:29:33;4.65;;;3.67;;
28028;SDS011;15345;59.364;18.016;2023-04-24T01:30:53;5.07;;;3.70;;
28028;SDS011;15345;59.364;18.016;2023-04-24T01:32:12;4.80;;;3.40;;
28028;SDS011;15345;59.364;18.016;2023-04-24T01:33:31;5.10;;;3.70;;
28028;SDS011;15345;59.364;18.016;2023-04-24T01:34:50;6.63;;;3.97;;
28028;SDS011;15345;59.364;18.016;2023-04-24T01:36:10;5.60;;;4.05;;
28028;SDS011;15345;59.364;18.016;2023-04-24T01:37:29;5.60;;;3.40;;
28028;SDS011;15345;59.364;18.016;2023-04-24T01:38:50;4.45;;;3.50;;
28028;SDS011;15345;59.364;18.016;2023-04-24T01:40:09;4.35;;;2.97;;
28028;SDS011;15345;59.364;18.016;2023-04-24T01:41:32;3.25;;;2.83;;
28028;SDS011;15345;59.364;18.016;2023-04-24T01:42:51;3.05;;;2.80;;
28028;SDS011;15345;59.364;18.016;2023-04-24T01:44:11;2.88;;;2.63;;
28028;SDS011;15345;59.364;18.016;2023-04-24T01:45:30;4.10;;;2.75;;
28028;SDS011;15345;59.364;18.016;2023-04-24T01:46:49;3.92;;;2.90;;
28028;SDS011;15345;59.364;18.016;2023-04-24T01:48:08;3.75;;;2.40;;
28028;SDS011;15345;59.364;18.016;2023-04-24T01:49:28;3.63;;;2.40;;
28028;SDS011;15345;59.364;18.016;2023-04-24T01:50:47;2.65;;;2.45;;
28028;SDS011;15345;59.364;18.016;2023-04-24T01:52:06;2.10;;;1.92;;
28028;SDS011;15345;59.364;18.016;2023-04-24T01:53:25;2.15;;;1.95;;
28028;SDS011;15345;59.364;18.016;2023-04-24T01:54:44;1.88;;;1.75;;
28028;SDS011;15345;59.364;18.016;2023-04-24T01:56:03;2.95;;;2.20;;
28028;SDS011;15345;59.364;18.016;2023-04-24T01:57:22;6.97;;;2.28;;
28028;SDS011;15345;59.364;18.016;2023-04-24T01:58:41;3.90;;;2.08;;
28028;SDS011;15345;59.364;18.016;2023-04-24T02:00:02;3.95;;;2.13;;
28028;SDS011;15345;59.364;18.016;2023-04-24T02:01:25;2.80;;;2.03;;
28028;SDS011;15345;59.364;18.016;2023-04-24T02:02:44;3.20;;;2.20;;
28028;SDS011;15345;59.364;18.016;2023-04-24T02:04:04;2.17;;;1.98;;
28028;SDS011;15345;59.364;18.016;2023-04-24T02:05:23;5.03;;;2.20;;
28028;SDS011;15345;59.364;18.016;2023-04-24T02:06:42;2.75;;;2.15;;
28028;SDS011;15345;59.364;18.016;2023-04-24T02:08:01;5.82;;;2.38;;
28028;SDS011;15345;59.364;18.016;2023-04-24T02:09:19;4.45;;;2.45;;
28028;SDS011;15345;59.364;18.016;2023-04-24T02:10:38;2.58;;;2.00;;
28028;SDS011;15345;59.364;18.016;2023-04-24T02:11:57;3.63;;;2.30;;
28028;SDS011;15345;59.364;18.016;2023-04-24T02:13:16;3.80;;;2.45;;
28028;SDS011;15345;59.364;18.016;2023-04-24T02:14:35;6.32;;;2.50;;
28028;SDS011;15345;59.364;18.016;2023-04-24T02:15:54;6.15;;;2.67;;
28028;SDS011;15345;59.364;18.016;2023-04-24T02:17:13;4.82;;;2.55;;
28028;SDS011;15345;59.364;18.016;2023-04-24T02:18:34;5.03;;;2.55;;
28028;SDS011;15345;59.364;18.016;2023-04-24T02:19:53;9.07;;;2.72;;
28028;SDS011;15345;59.364;18.016;2023-04-24T02:21:11;6.05;;;2.47;;
28028;SDS011;15345;59.364;18.016;2023-04-24T02:22:30;5.57;;;3.30;;
28028;SDS011;15345;59.364;18.016;2023-04-24T02:23:49;3.95;;;2.50;;
28028;SDS011;15345;59.364;18.016;2023-04-24T02:25:08;5.82;;;2.78;;
28028;SDS011;15345;59.364;18.016;2023-04-24T02:26:27;4.40;;;2.42;;
28028;SDS011;15345;59.364;18.016;2023-04-24T02:27:46;6.95;;;3.78;;
28028;SDS011;15345;59.364;18.016;2023-04-24T02:29:05;5.60;;;2.92;;
28028;SDS011;15345;59.364;18.016;2023-04-24T02:30:24;7.68;;;3.33;;
28028;SDS011;15345;59.364;18.016;2023-04-24T02:31:43;5.70;;;3.10;;
28028;SDS011;15345;59.364;18.016;2023-04-24T02:33:01;7.30;;;3.33;;
28028;SDS011;15345;59.364;18.016;2023-04-24T02:34:20;5.45;;;2.78;;
28028;SDS011;15345;59.364;18.016;2023-04-24T02:35:39;5.00;;;2.83;;
28028;SDS011;15345;59.364;18.016;2023-04-24T02:36:58;6.28;;;3.13;;
28028;SDS011;15345;59.364;18.016;2023-04-24T02:38:17;6.07;;;3.55;;
28028;SDS011;15345;59.364;18.016;2023-04-24T02:39:36;6.90;;;3.47;;
28028;SDS011;15345;59.364;18.016;2023-04-24T02:40:55;5.22;;;3.10;;
28028;SDS011;15345;59.364;18.016;2023-04-24T02:42:14;5.90;;;3.50;;
28028;SDS011;15345;59.364;18.016;2023-04-24T02:43:34;7.35;;;3.70;;
28028;SDS011;15345;59.364;18.016;2023-04-24T02:44:53;4.90;;;3.35;;
28028;SDS011;15345;59.364;18.016;2023-04-24T02:46:11;3.65;;;2.72;;
28028;SDS011;15345;59.364;18.016;2023-04-24T02:47:30;7.85;;;3.53;;
28028;SDS011;15345;59.364;18.016;2023-04-24T02:48:49;6.20;;;3.92;;
28028;SDS011;15345;59.364;18.016;2023-04-24T02:50:08;3.80;;;3.00;;
28028;SDS011;15345;59.364;18.016;2023-04-24T02:51:27;6.75;;;2.83;;
28028;SDS011;15345;59.364;18.016;2023-04-24T02:52:46;5.35;;;3.15;;
28028;SDS011;15345;59.364;18.016;2023-04-24T02:54:05;5.43;;;2.90;;
28028;SDS011;15345;59.364;18.016;2023-04-24T02:55:24;5.72;;;3.38;;
28028;SDS011;15345;59.364;18.016;2023-04-24T02:56:43;8.20;;;3.55;;
28028;SDS011;15345;59.364;18.016;2023-04-24T02:58:02;5.07;;;3.05;;
28028;SDS011;15345;59.364;18.016;2023-04-24T02:59:21;6.57;;;2.63;;
28028;SDS011;15345;59.364;18.016;2023-04-24T03:00:40;8.05;;;3.35;;
28028;SDS011;15345;59.364;18.016;2023-04-24T03:01:59;8.13;;;4.13;;
28028;SDS011;15345;59.364;18.016;2023-04-24T03:03:18;6.60;;;3.60;;
28028;SDS011;15345;59.364;18.016;2023-04-24T03:04:37;7.63;;;3.80;;
28028;SDS011;15345;59.364;18.016;2023-04-24T03:05:56;9.13;;;4.03;;
28028;SDS011;15345;59.364;18.016;2023-04-24T03:07:15;5.15;;;3.80;;
28028;SDS011;15345;59.364;18.016;2023-04-24T03:08:35;10.43;;;4.60;;
28028;SDS011;15345;59.364;18.016;2023-04-24T03:09:53;9.30;;;4.20;;
28028;SDS011;15345;59.364;18.016;2023-04-24T03:11:12;8.68;;;3.85;;
28028;SDS011;15345;59.364;18.016;2023-04-24T03:12:31;8.70;;;4.32;;
28028;SDS011;15345;59.364;18.016;2023-04-24T03:13:50;10.05;;;4.35;;
28028;SDS011;15345;59.364;18.016;2023-04-24T03:15:09;6.20;;;3.55;;
28028;SDS011;15345;59.364;18.016;2023-04-24T03:16:28;12.60;;;4.47;;
28028;SDS011;15345;59.364;18.016;2023-04-24T03:17:47;8.25;;;3.92;;
28028;SDS011;15345;59.364;18.016;2023-04-24T03:19:06;10.20;;;4.38;;
28028;SDS011;15345;59.364;18.016;2023-04-24T03:20:25;8.48;;;4.00;;
28028;SDS011;15345;59.364;18.016;2023-04-24T03:21:44;6.40;;;3.80;;
28028;SDS011;15345;59.364;18.016;2023-04-24T03:23:03;9.20;;;4.50;;
28028;SDS011;15345;59.364;18.016;2023-04-24T03:24:23;7.35;;;3.83;;
28028;SDS011;15345;59.364;18.016;2023-04-24T03:25:42;6.43;;;3.70;;
28028;SDS011;15345;59.364;18.016;2023-04-24T03:27:01;12.40;;;4.88;;
28028;SDS011;15345;59.364;18.016;2023-04-24T03:28:20;12.38;;;4.90;;
28028;SDS011;15345;59.364;18.016;2023-04-24T03:29:39;6.97;;;3.70;;
28028;SDS011;15345;59.364;18.016;2023-04-24T03:30:58;6.43;;;4.40;;
28028;SDS011;15345;59.364;18.016;2023-04-24T03:32:17;6.55;;;3.95;;
28028;SDS011;15345;59.364;18.016;2023-04-24T03:33:36;5.82;;;3.92;;
28028;SDS011;15345;59.364;18.016;2023-04-24T03:34:55;8.05;;;3.63;;
28028;SDS011;15345;59.364;18.016;2023-04-24T03:36:14;7.70;;;4.40;;
28028;SDS011;15345;59.364;18.016;2023-04-24T03:37:33;8.02;;;4.35;;
28028;SDS011;15345;59.364;18.016;2023-04-24T03:38:52;9.35;;;4.15;;
28028;SDS011;15345;59.364;18.016;2023-04-24T03:40:11;7.18;;;4.22;;
28028;SDS011;15345;59.364;18.016;2023-04-24T03:41:30;4.75;;;3.65;;
28028;SDS011;15345;59.364;18.016;2023-04-24T03:42:49;9.07;;;3.90;;
28028;SDS011;15345;59.364;18.016;2023-04-24T03:44:08;6.60;;;3.67;;
28028;SDS011;15345;59.364;18.016;2023-04-24T03:45:27;5.07;;;3.70;;
28028;SDS011;15345;59.364;18.016;2023-04-24T03:46:46;8.52;;;3.83;;
28028;SDS011;15345;59.364;18.016;2023-04-24T03:48:05;8.20;;;4.55;;
28028;SDS011;15345;59.364;18.016;2023-04-24T03:49:24;8.23;;;4.35;;
28028;SDS011;15345;59.364;18.016;2023-04-24T03:50:44;8.32;;;4.03;;
28028;SDS011;15345;59.364;18.016;2023-04-24T03:52:03;5.85;;;3.85;;
28028;SDS011;15345;59.364;18.016;2023-04-24T03:53:22;6.05;;;3.40;;
28028;SDS011;15345;59.364;18.016;2023-04-24T03:54:40;5.15;;;3.72;;
28028;SDS011;15345;59.364;18.016;2023-04-24T03:55:59;7.35;;;3.83;;
28028;SDS011;15345;59.364;18.016;2023-04-24T03:57:18;9.00;;;3.78;;
28028;SDS011;15345;59.364;18.016;2023-04-24T03:58:37;8.35;;;3.97;;
28028;SDS011;15345;59.364;18.016;2023-04-24T03:59:56;7.13;;;3.15;;
28028;SDS011;15345;59.364;18.016;2023-04-24T04:01:15;11.65;;;3.80;;
28028;SDS011;15345;59.364;18.016;2023-04-24T04:02:34;7.78;;;2.92;;
28028;SDS011;15345;59.364;18.016;2023-04-24T04:03:53;7.47;;;3.50;;
28028;SDS011;15345;59.364;18.016;2023-04-24T04:05:12;4.60;;;3.65;;
28028;SDS011;15345;59.364;18.016;2023-04-24T04:06:31;4.20;;;3.08;;
28028;SDS011;15345;59.364;18.016;2023-04-24T04:07:50;10.60;;;3.85;;
28028;SDS011;15345;59.364;18.016;2023-04-24T04:09:09;6.57;;;3.75;;
28028;SDS011;15345;59.364;18.016;2023-04-24T04:10:28;4.80;;;3.30;;
28028;SDS011;15345;59.364;18.016;2023-04-24T04:11:47;6.28;;;4.30;;
28028;SDS011;15345;59.364;18.016;2023-04-24T04:13:06;9.02;;;3.83;;
28028;SDS011;15345;59.364;18.016;2023-04-24T04:14:26;10.55;;;3.92;;
28028;SDS011;15345;59.364;18.016;2023-04-24T04:15:45;9.75;;;4.10;;
28028;SDS011;15345;59.364;18.016;2023-04-24T04:17:04;10.98;;;4.35;;
28028;SDS011;15345;59.364;18.016;2023-04-24T04:18:23;9.80;;;4.35;;
28028;SDS011;15345;59.364;18.016;2023-04-24T04:19:42;6.95;;;3.90;;
28028;SDS011;15345;59.364;18.016;2023-04-24T04:21:01;9.85;;;4.38;;
28028;SDS011;15345;59.364;18.016;2023-04-24T04:22:20;7.13;;;3.72;;
28028;SDS011;15345;59.364;18.016;2023-04-24T04:23:39;13.40;;;4.30;;
28028;SDS011;15345;59.364;18.016;2023-04-24T04:24:58;8.85;;;3.70;;
28028;SDS011;15345;59.364;18.016;2023-04-24T04:26:18;12.98;;;4.07;;
28028;SDS011;15345;59.364;18.016;2023-04-24T04:27:37;9.95;;;4.10;;
28028;SDS011;15345;59.364;18.016;2023-04-24T04:28:58;11.27;;;4.30;;
28028;SDS011;15345;59.364;18.016;2023-04-24T04:30:17;5.80;;;3.92;;
28028;SDS011;15345;59.364;18.016;2023-04-24T04:31:37;7.15;;;3.60;;
28028;SDS011;15345;59.364;18.016;2023-04-24T04:32:56;6.28;;;4.15;;
28028;SDS011;15345;59.364;18.016;2023-04-24T04:34:15;6.30;;;3.97;;
28028;SDS011;15345;59.364;18.016;2023-04-24T04:35:34;7.30;;;3.95;;
28028;SDS011;15345;59.364;18.016;2023-04-24T04:36:53;7.70;;;4.07;;
28028;SDS011;15345;59.364;18.016;2023-04-24T04:38:12;6.13;;;3.70;;
28028;SDS011;15345;59.364;18.016;2023-04-24T04:39:31;8.60;;;3.85;;
28028;SDS011;15345;59.364;18.016;2023-04-24T04:40:50;8.00;;;3.85;;
28028;SDS011;15345;59.364;18.016;2023-04-24T04:42:09;9.57;;;3.90;;
28028;SDS011;15345;59.364;18.016;2023-04-24T04:43:28;8.80;;;4.65;;
28028;SDS011;15345;59.364;18.016;2023-04-24T04:44:47;9.15;;;4.18;;
28028;SDS011;15345;59.364;18.016;2023-04-24T04:46:05;7.93;;;3.78;;
28028;SDS011;15345;59.364;18.016;2023-04-24T04:47:27;6.90;;;3.80;;
28028;SDS011;15345;59.364;18.016;2023-04-24T04:48:47;8.15;;;3.90;;
28028;SDS011;15345;59.364;18.016;2023-04-24T04:50:06;7.82;;;3.80;;
28028;SDS011;15345;59.364;18.016;2023-04-24T04:51:25;11.30;;;4.60;;
28028;SDS011;15345;59.364;18.016;2023-04-24T04:52:44;9.65;;;4.32;;
28028;SDS011;15345;59.364;18.016;2023-04-24T04:54:03;8.48;;;3.97;;
28028;SDS011;15345;59.364;18.016;2023-04-24T04:55:22;11.95;;;4.07;;
28028;SDS011;15345;59.364;18.016;2023-04-24T04:56:40;10.45;;;4.70;;
28028;SDS011;15345;59.364;18.016;2023-04-24T04:57:59;8.30;;;4.85;;
28028;SDS011;15345;59.364;18.016;2023-04-24T04:59:19;9.02;;;3.67;;
28028;SDS011;15345;59.364;18.016;2023-04-24T05:00:38;7.65;;;3.85;;
28028;SDS011;15345;59.364;18.016;2023-04-24T05:01:57;8.82;;;4.30;;
28028;SDS011;15345;59.364;18.016;2023-04-24T05:03:16;10.05;;;4.80;;
28028;SDS011;15345;59.364;18.016;2023-04-24T05:04:35;9.55;;;4.22;;
28028;SDS011;15345;59.364;18.016;2023-04-24T05:05:54;5.80;;;3.38;;
28028;SDS011;15345;59.364;18.016;2023-04-24T05:07:13;6.47;;;3.95;;
28028;SDS011;15345;59.364;18.016;2023-04-24T05:08:32;7.70;;;4.38;;
28028;SDS011;15345;59.364;18.016;2023-04-24T05:09:51;7.30;;;3.95;;
28028;SDS011;15345;59.364;18.016;2023-04-24T05:11:10;10.18;;;3.65;;
28028;SDS011;15345;59.364;18.016;2023-04-24T05:12:29;8.02;;;4.38;;
28028;SDS011;15345;59.364;18.016;2023-04-24T05:13:48;8.05;;;4.13;;
28028;SDS011;15345;59.364;18.016;2023-04-24T05:15:07;7.90;;;4.35;;
28028;SDS011;15345;59.364;18.016;2023-04-24T05:16:26;7.75;;;4.38;;
28028;SDS011;15345;59.364;18.016;2023-04-24T05:17:45;9.40;;;4.90;;
28028;SDS011;15345;59.364;18.016;2023-04-24T05:19:04;7.07;;;4.35;;
28028;SDS011;15345;59.364;18.016;2023-04-24T05:20:24;8.82;;;4.80;;
28028;SDS011;15345;59.364;18.016;2023-04-24T05:21:43;4.82;;;3.88;;
28028;SDS011;15345;59.364;18.016;2023-04-24T05:23:05;7.45;;;3.97;;
28028;SDS011;15345;59.364;18.016;2023-04-24T05:24:24;6.05;;;4.35;;
28028;SDS011;15345;59.364;18.016;2023-04-24T05:25:44;6.82;;;3.33;;
28028;SDS011;15345;59.364;18.016;2023-04-24T05:27:12;4.05;;;3.15;;
28028;SDS011;15345;59.364;18.016;2023-04-24T05:28:31;6.65;;;4.00;;
28028;SDS011;15345;59.364;18.016;2023-04-24T05:29:50;7.05;;;2.97;;
28028;SDS011;15345;59.364;18.016;2023-04-24T05:31:09;7.95;;;4.22;;
28028;SDS011;15345;59.364;18.016;2023-04-24T05:32:28;5.40;;;3.05;;
28028;SDS011;15345;59.364;18.016;2023-04-24T05:33:47;4.18;;;2.97;;
28028;SDS011;15345;59.364;18.016;2023-04-24T05:35:07;3.53;;;2.63;;
28028;SDS011;15345;59.364;18.016;2023-04-24T05:36:26;5.07;;;2.90;;
28028;SDS011;15345;59.364;18.016;2023-04-24T05:37:45;6.13;;;2.97;;
28028;SDS011;15345;59.364;18.016;2023-04-24T05:39:04;3.47;;;2.50;;
28028;SDS011;15345;59.364;18.016;2023-04-24T05:40:24;4.38;;;2.35;;
28028;SDS011;15345;59.364;18.016;2023-04-24T05:41:43;4.00;;;2.67;;
28028;SDS011;15345;59.364;18.016;2023-04-24T05:43:01;3.70;;;2.55;;
28028;SDS011;15345;59.364;18.016;2023-04-24T05:44:20;2.65;;;2.38;;
28028;SDS011;15345;59.364;18.016;2023-04-24T05:45:39;4.50;;;2.65;;
28028;SDS011;15345;59.364;18.016;2023-04-24T05:46:58;4.07;;;2.15;;
28028;SDS011;15345;59.364;18.016;2023-04-24T05:48:17;5.05;;;2.80;;
28028;SDS011;15345;59.364;18.016;2023-04-24T05:49:36;5.82;;;2.83;;
28028;SDS011;15345;59.364;18.016;2023-04-24T05:50:55;3.95;;;2.72;;
28028;SDS011;15345;59.364;18.016;2023-04-24T05:52:14;4.30;;;3.00;;
28028;SDS011;15345;59.364;18.016;2023-04-24T05:53:33;4.85;;;2.85;;
28028;SDS011;15345;59.364;18.016;2023-04-24T05:54:52;4.95;;;3.22;;
28028;SDS011;15345;59.364;18.016;2023-04-24T05:56:12;4.70;;;3.30;;
28028;SDS011;15345;59.364;18.016;2023-04-24T05:57:30;5.28;;;3.63;;
28028;SDS011;15345;59.364;18.016;2023-04-24T05:58:49;3.65;;;2.72;;
28028;SDS011;15345;59.364;18.016;2023-04-24T06:00:09;2.63;;;2.42;;
28028;SDS011;15345;59.364;18.016;2023-04-24T06:01:30;4.55;;;3.05;;
28028;SDS011;15345;59.364;18.016;2023-04-24T06:02:50;4.93;;;2.75;;
28028;SDS011;15345;59.364;18.016;2023-04-24T06:04:09;3.20;;;2.90;;
28028;SDS011;15345;59.364;18.016;2023-04-24T06:05:28;2.88;;;2.10;;
28028;SDS011;15345;59.364;18.016;2023-04-24T06:06:47;3.38;;;2.40;;
28028;SDS011;15345;59.364;18.016;2023-04-24T06:08:09;3.72;;;2.67;;
28028;SDS011;15345;59.364;18.016;2023-04-24T06:09:28;4.35;;;2.85;;
28028;SDS011;15345;59.364;18.016;2023-04-24T06:10:47;3.67;;;2.75;;
28028;SDS011;15345;59.364;18.016;2023-04-24T06:12:06;4.40;;;2.30;;
28028;SDS011;15345;59.364;18.016;2023-04-24T06:13:26;3.85;;;2.83;;
28028;SDS011;15345;59.364;18.016;2023-04-24T06:14:45;4.20;;;2.50;;
28028;SDS011;15345;59.364;18.016;2023-04-24T06:16:04;6.65;;;3.55;;
28028;SDS011;15345;59.364;18.016;2023-04-24T06:17:23;5.90;;;2.75;;
28028;SDS011;15345;59.364;18.016;2023-04-24T06:18:42;2.83;;;2.42;;
28028;SDS011;15345;59.364;18.016;2023-04-24T06:20:01;3.80;;;2.80;;
28028;SDS011;15345;59.364;18.016;2023-04-24T06:21:23;3.22;;;2.38;;
28028;SDS011;15345;59.364;18.016;2023-04-24T06:22:42;5.25;;;2.40;;
28028;SDS011;15345;59.364;18.016;2023-04-24T06:24:01;3.15;;;2.47;;
28028;SDS011;15345;59.364;18.016;2023-04-24T06:25:21;4.50;;;2.33;;
28028;SDS011;15345;59.364;18.016;2023-04-24T06:26:40;3.35;;;2.60;;
28028;SDS011;15345;59.364;18.016;2023-04-24T06:27:59;4.97;;;2.75;;
28028;SDS011;15345;59.364;18.016;2023-04-24T06:29:19;3.17;;;2.50;;
28028;SDS011;15345;59.364;18.016;2023-04-24T06:30:38;3.53;;;2.80;;
28028;SDS011;15345;59.364;18.016;2023-04-24T06:31:58;3.95;;;2.70;;
28028;SDS011;15345;59.364;18.016;2023-04-24T06:33:16;6.85;;;2.15;;
28028;SDS011;15345;59.364;18.016;2023-04-24T06:34:35;3.50;;;2.33;;
28028;SDS011;15345;59.364;18.016;2023-04-24T06:35:55;6.63;;;3.08;;
28028;SDS011;15345;59.364;18.016;2023-04-24T06:37:14;2.50;;;2.30;;
28028;SDS011;15345;59.364;18.016;2023-04-24T06:38:34;2.80;;;2.17;;
28028;SDS011;15345;59.364;18.016;2023-04-24T06:39:53;3.20;;;2.60;;
28028;SDS011;15345;59.364;18.016;2023-04-24T06:41:12;10.05;;;2.83;;
28028;SDS011;15345;59.364;18.016;2023-04-24T06:42:31;6.13;;;2.45;;
28028;SDS011;15345;59.364;18.016;2023-04-24T06:43:50;5.50;;;2.33;;
28028;SDS011;15345;59.364;18.016;2023-04-24T06:45:09;6.22;;;2.80;;
28028;SDS011;15345;59.364;18.016;2023-04-24T06:46:29;3.90;;;2.53;;
28028;SDS011;15345;59.364;18.016;2023-04-24T06:47:48;2.55;;;2.17;;
28028;SDS011;15345;59.364;18.016;2023-04-24T06:49:07;3.80;;;2.20;;
28028;SDS011;15345;59.364;18.016;2023-04-24T06:50:26;3.90;;;2.00;;
28028;SDS011;15345;59.364;18.016;2023-04-24T06:51:45;2.58;;;2.20;;
28028;SDS011;15345;59.364;18.016;2023-04-24T06:53:04;2.30;;;2.10;;
28028;SDS011;15345;59.364;18.016;2023-04-24T06:54:23;2.78;;;2.47;;
28028;SDS011;15345;59.364;18.016;2023-04-24T06:55:42;5.28;;;2.17;;
28028;SDS011;15345;59.364;18.016;2023-04-24T06:57:01;3.15;;;2.30;;
28028;SDS011;15345;59.364;18.016;2023-04-24T06:58:20;5.03;;;2.53;;
28028;SDS011;15345;59.364;18.016;2023-04-24T06:59:39;4.63;;;2.45;;
28028;SDS011;15345;59.364;18.016;2023-04-24T07:00:58;3.05;;;2.15;;
28028;SDS011;15345;59.364;18.016;2023-04-24T07:02:17;4.35;;;2.30;;
28028;SDS011;15345;59.364;18.016;2023-04-24T07:03:36;5.95;;;2.20;;
28028;SDS011;15345;59.364;18.016;2023-04-24T07:04:55;2.97;;;2.55;;
28028;SDS011;15345;59.364;18.016;2023-04-24T07:06:15;3.75;;;1.95;;
28028;SDS011;15345;59.364;18.016;2023-04-24T07:07:37;5.85;;;2.60;;
28028;SDS011;15345;59.364;18.016;2023-04-24T07:08:56;4.90;;;2.47;;
28028;SDS011;15345;59.364;18.016;2023-04-24T07:10:15;4.40;;;2.58;;
28028;SDS011;15345;59.364;18.016;2023-04-24T07:11:34;6.10;;;2.45;;
28028;SDS011;15345;59.364;18.016;2023-04-24T07:12:55;3.85;;;2.40;;
28028;SDS011;15345;59.364;18.016;2023-04-24T07:14:15;5.78;;;2.22;;
28028;SDS011;15345;59.364;18.016;2023-04-24T07:15:34;2.67;;;2.17;;
28028;SDS011;15345;59.364;18.016;2023-04-24T07:16:54;3.05;;;1.88;;
28028;SDS011;15345;59.364;18.016;2023-04-24T07:18:13;2.95;;;1.83;;
28028;SDS011;15345;59.364;18.016;2023-04-24T07:19:35;9.23;;;2.20;;
28028;SDS011;15345;59.364;18.016;2023-04-24T07:20:54;4.22;;;2.45;;
28028;SDS011;15345;59.364;18.016;2023-04-24T07:22:13;5.88;;;2.55;;
28028;SDS011;15345;59.364;18.016;2023-04-24T07:23:35;3.55;;;2.15;;
28028;SDS011;15345;59.364;18.016;2023-04-24T07:24:54;3.45;;;2.22;;
28028;SDS011;15345;59.364;18.016;2023-04-24T07:26:13;4.28;;;2.17;;
28028;SDS011;15345;59.364;18.016;2023-04-24T07:27:33;6.75;;;2.05;;
28028;SDS011;15345;59.364;18.016;2023-04-24T07:28:53;2.88;;;1.83;;
28028;SDS011;15345;59.364;18.016;2023-04-24T07:30:12;4.30;;;1.83;;
28028;SDS011;15345;59.364;18.016;2023-04-24T07:31:31;5.50;;;2.08;;
28028;SDS011;15345;59.364;18.016;2023-04-24T07:32:50;4.32;;;2.10;;
28028;SDS011;15345;59.364;18.016;2023-04-24T07:34:09;4.72;;;1.90;;
28028;SDS011;15345;59.364;18.016;2023-04-24T07:35:28;3.38;;;2.65;;
28028;SDS011;15345;59.364;18.016;2023-04-24T07:36:47;2.67;;;1.60;;
28028;SDS011;15345;59.364;18.016;2023-04-24T07:38:07;4.15;;;1.88;;
28028;SDS011;15345;59.364;18.016;2023-04-24T07:39:26;3.20;;;2.13;;
28028;SDS011;15345;59.364;18.016;2023-04-24T07:40:45;2.35;;;2.15;;
28028;SDS011;15345;59.364;18.016;2023-04-24T07:42:04;3.15;;;2.20;;
28028;SDS011;15345;59.364;18.016;2023-04-24T07:43:23;4.00;;;1.92;;
28028;SDS011;15345;59.364;18.016;2023-04-24T07:44:42;3.00;;;2.40;;
28028;SDS011;15345;59.364;18.016;2023-04-24T07:46:01;3.00;;;1.90;;
28028;SDS011;15345;59.364;18.016;2023-04-24T07:47:20;4.53;;;2.25;;
28028;SDS011;15345;59.364;18.016;2023-04-24T07:48:39;2.50;;;2.05;;
28028;SDS011;15345;59.364;18.016;2023-04-24T07:49:59;3.25;;;1.50;;
28028;SDS011;15345;59.364;18.016;2023-04-24T07:51:17;1.90;;;1.80;;